Terminal Aerodrome Forecast
Issued by NWS Atlanta, GA

Home | Current Version | Previous Version | Text Only | Print | Product List | Glossary On
Versions: 1 2 3 4 5 6 7 8 9 10 11 12 13 14 15 16 17 18 19 20 21 22 23
000
FTUS42 KFFC 301510 AAD
TAFMCN
TAF AMD
KMCN 301510Z 3015/3112 05005KT 6SM -SHRA SCT005 OVC010
      TEMPO 3015/3017 1SM +SHRA BR BKN005
     FM301800 11008KT P6SM -SHRA BKN035
      TEMPO 3018/3022 5SM TSRA BKN025CB
     FM310100 11004KT P6SM SCT010 BKN100
     FM310600 09004KT 3SM BR BKN005 OVC030=

USA.gov is the U.S. government's official web portal to all federal, state and local government web resources and services.